Time;durP1;ratioP1;P1;durP2;ratioP2;P2;SDS_P1;SDS_P2;PMS_P1;PMS_P2;Temp;Humidity;BMP_temperature;BMP_pressure;BME280_temperature;BME280_humidity;BME280_pressure;Samples;Min_cycle;Max_cycle;Signal;HPM_P1;HPM_P2
2021/06/19 00:00:57;;;;;;;9.23;3.63;;;23.70;96.70;;;;;;5036772;28;20048;-72
2021/06/19 00:03:29;;;;;;;4.03;3.05;;;23.80;96.70;;;;;;5039224;28;20072;-72
2021/06/19 00:05:59;;;;;;;6.47;4.03;;;23.90;96.70;;;;;;5039953;28;20049;-72
2021/06/19 00:08:29;;;;;;;7.53;4.28;;;23.90;96.70;;;;;;5042171;28;20069;-72
2021/06/19 00:10:59;;;;;;;8.18;4.18;;;23.70;96.70;;;;;;5040345;28;20041;-72
2021/06/19 00:13:28;;;;;;;4.63;3.90;;;23.90;96.70;;;;;;5040346;28;20045;-71
2021/06/19 00:15:57;;;;;;;5.32;3.60;;;23.90;96.70;;;;;;5039520;28;20053;-73
2021/06/19 00:18:29;;;;;;;7.85;4.28;;;23.80;96.70;;;;;;5039388;28;20072;-72
2021/06/19 00:20:58;;;;;;;7.18;3.80;;;23.70;96.70;;;;;;5041135;28;20049;-72
2021/06/19 00:23:27;;;;;;;6.15;3.55;;;23.70;96.70;;;;;;5041217;28;20040;-72
2021/06/19 00:26:04;;;;;;;9.48;4.35;;;23.80;96.70;;;;;;5040360;28;20143;-72
2021/06/19 00:28:33;;;;;;;4.53;3.75;;;23.80;96.70;;;;;;5038619;28;20132;-72
2021/06/19 00:31:03;;;;;;;5.15;3.35;;;23.70;96.70;;;;;;5039637;28;20123;-72
2021/06/19 00:33:34;;;;;;;6.55;4.13;;;23.70;96.70;;;;;;5039430;28;20072;-72
2021/06/19 00:36:05;;;;;;;4.45;3.30;;;23.80;96.70;;;;;;5041035;28;20040;-72
2021/06/19 00:38:35;;;;;;;3.83;2.72;;;23.70;96.70;;;;;;5036666;28;20041;-72
2021/06/19 00:41:05;;;;;;;4.78;2.88;;;23.60;96.70;;;;;;5035645;28;20045;-72
2021/06/19 00:43:35;;;;;;;5.13;2.95;;;23.60;96.70;;;;;;5041221;28;20152;-71
2021/06/19 00:46:05;;;;;;;6.88;2.92;;;23.70;96.70;;;;;;5033045;28;20494;-72
2021/06/19 00:48:38;;;;;;;4.55;3.22;;;23.70;96.70;;;;;;5039215;28;20045;-72
2021/06/19 00:51:08;;;;;;;3.92;2.88;;;23.80;96.70;;;;;;5038055;28;20057;-72
2021/06/19 00:53:38;;;;;;;5.03;3.00;;;23.80;96.70;;;;;;5042391;28;20037;-72
2021/06/19 00:56:08;;;;;;;3.72;3.00;;;23.80;96.70;;;;;;5033875;28;20386;-72
2021/06/19 00:58:39;;;;;;;4.75;2.90;;;23.60;96.70;;;;;;5040444;28;20051;-72
2021/06/19 01:01:09;;;;;;;5.15;3.15;;;23.60;96.70;;;;;;5041884;28;20043;-72
2021/06/19 01:03:41;;;;;;;3.25;2.92;;;23.60;96.70;;;;;;5040978;28;20136;-72
2021/06/19 01:06:09;;;;;;;6.00;2.90;;;23.50;96.70;;;;;;5036322;28;20996;-72
2021/06/19 01:08:37;;;;;;;3.13;2.80;;;23.50;96.70;;;;;;5039437;28;20069;-72
2021/06/19 01:11:06;;;;;;;4.80;2.70;;;23.60;96.70;;;;;;5041467;28;20560;-72
2021/06/19 01:13:35;;;;;;;4.60;2.67;;;23.50;96.70;;;;;;5038619;28;20346;-72
2021/06/19 01:16:04;;;;;;;3.15;2.60;;;23.50;96.70;;;;;;5038349;28;20134;-72
2021/06/19 01:18:41;;;;;;;4.40;3.00;;;23.50;96.70;;;;;;5039649;28;20411;-72
2021/06/19 01:21:14;;;;;;;3.55;2.83;;;23.40;96.70;;;;;;5041982;28;20040;-72
2021/06/19 01:23:44;;;;;;;5.78;3.10;;;23.20;96.70;;;;;;5039359;28;20045;-72
2021/06/19 01:26:15;;;;;;;4.80;2.72;;;23.10;96.70;;;;;;5042492;28;20045;-72
2021/06/19 01:28:45;;;;;;;5.57;3.20;;;23.20;96.70;;;;;;5034705;28;20510;-72
2021/06/19 01:31:14;;;;;;;5.00;3.08;;;23.10;96.70;;;;;;5040157;28;20151;-72
2021/06/19 01:33:45;;;;;;;4.38;3.03;;;23.00;96.70;;;;;;5037170;28;20049;-72
2021/06/19 01:36:14;;;;;;;4.68;3.28;;;23.00;96.70;;;;;;5040395;28;20041;-72
2021/06/19 01:38:44;;;;;;;5.60;3.20;;;22.90;96.70;;;;;;5036134;28;20049;-72
2021/06/19 01:41:14;;;;;;;4.43;2.85;;;23.00;96.70;;;;;;5035461;28;20041;-72
2021/06/19 01:43:44;;;;;;;5.32;3.20;;;23.00;96.70;;;;;;5042035;28;20052;-72
2021/06/19 01:46:13;;;;;;;5.38;3.28;;;23.00;96.70;;;;;;5040894;28;20328;-72
2021/06/19 01:48:41;;;;;;;3.95;3.30;;;23.10;96.70;;;;;;5032696;28;20037;-72
2021/06/19 01:51:10;;;;;;;4.65;3.35;;;23.20;96.70;;;;;;5026564;28;20052;-72
2021/06/19 01:53:38;;;;;;;3.97;3.05;;;23.10;96.70;;;;;;5020750;28;20093;-72
2021/06/19 01:56:14;;;;;;;4.35;3.50;;;22.90;96.70;;;;;;5040483;28;20041;-72
2021/06/19 01:58:43;;;;;;;4.70;3.00;;;22.80;96.70;;;;;;5040204;28;20119;-72
2021/06/19 02:01:18;;;;;;;3.88;3.10;;;22.90;96.70;;;;;;5038403;28;20055;-72
2021/06/19 02:03:49;;;;;;;4.57;3.33;;;22.80;96.70;;;;;;5038875;28;20033;-72
2021/06/19 02:06:19;;;;;;;5.28;2.58;;;22.90;96.70;;;;;;5037807;28;20037;-72
2021/06/19 02:09:04;;;;;;;7.15;3.40;;;22.90;96.70;;;;;;5038912;28;20049;-72
2021/06/19 02:11:35;;;;;;;3.22;2.90;;;22.80;96.70;;;;;;5040048;28;20088;-72
2021/06/19 02:14:05;;;;;;;2.95;2.50;;;22.80;96.70;;;;;;5025256;28;20045;-72
2021/06/19 02:16:35;;;;;;;5.72;2.90;;;22.80;96.70;;;;;;5035168;28;20083;-72
2021/06/19 02:19:04;;;;;;;5.50;2.70;;;22.60;96.70;;;;;;5038780;28;20052;-72
2021/06/19 02:21:34;;;;;;;3.92;2.60;;;22.60;96.70;;;;;;5036191;28;20041;-72
2021/06/19 02:24:04;;;;;;;3.00;2.70;;;22.60;96.70;;;;;;5039460;28;20049;-72
2021/06/19 02:26:35;;;;;;;6.10;2.55;;;22.60;96.70;;;;;;5038495;28;20419;-72
2021/06/19 02:29:04;;;;;;;3.35;2.70;;;22.40;96.70;;;;;;5041120;28;20037;-72
2021/06/19 02:31:34;;;;;;;3.53;2.72;;;22.30;96.70;;;;;;5042845;28;20102;-72
2021/06/19 02:34:04;;;;;;;5.70;2.75;;;22.30;96.70;;;;;;5046612;28;20099;-72
2021/06/19 02:36:33;;;;;;;4.85;2.53;;;22.40;96.70;;;;;;5046946;28;20048;-72
2021/06/19 02:39:03;;;;;;;2.95;2.65;;;22.40;96.70;;;;;;5043566;28;20498;-72
2021/06/19 02:41:32;;;;;;;4.22;2.80;;;22.30;96.70;;;;;;5034460;28;20040;-72
2021/06/19 02:44:04;;;;;;;2.85;2.58;;;22.30;96.70;;;;;;5043510;28;20429;-72
2021/06/19 02:46:33;;;;;;;6.03;2.60;;;22.30;96.70;;;;;;5042713;28;20257;-72
2021/06/19 02:49:03;;;;;;;3.50;2.15;;;22.30;96.70;;;;;;5042626;28;20561;-72
2021/06/19 02:51:33;;;;;;;3.67;2.60;;;22.30;96.70;;;;;;5039185;28;20110;-72
2021/06/19 02:54:41;;;;;;;2.95;2.40;;;22.30;96.70;;;;;;5044050;28;20448;-72
2021/06/19 02:57:10;;;;;;;5.78;2.70;;;22.40;96.70;;;;;;5045147;28;20113;-72
2021/06/19 02:59:40;;;;;;;4.00;2.42;;;22.40;96.70;;;;;;5040705;28;20036;-72
2021/06/19 03:02:10;;;;;;;3.00;2.70;;;22.40;96.70;;;;;;5041470;28;20079;-72
2021/06/19 03:04:39;;;;;;;4.63;2.85;;;22.30;96.70;;;;;;5039932;28;20307;-72
2021/06/19 03:07:08;;;;;;;3.10;2.80;;;22.20;96.70;;;;;;5041555;28;20135;-73
2021/06/19 03:09:38;;;;;;;2.88;2.63;;;22.20;96.70;;;;;;5041464;28;20128;-72
2021/06/19 03:12:08;;;;;;;3.00;2.72;;;22.20;96.70;;;;;;5042171;28;20506;-73
2021/06/19 03:14:40;;;;;;;2.90;2.38;;;22.10;96.70;;;;;;5037576;28;20052;-72
2021/06/19 03:17:09;;;;;;;4.20;2.92;;;22.00;96.70;;;;;;5042629;28;20118;-73
2021/06/19 03:19:39;;;;;;;3.20;2.50;;;22.10;96.70;;;;;;5032882;28;20048;-73
2021/06/19 03:22:13;;;;;;;5.50;2.78;;;22.10;96.70;;;;;;5041996;28;20045;-73
2021/06/19 03:24:53;;;;;;;4.47;2.97;;;22.00;96.70;;;;;;5026865;28;20696;-73
2021/06/19 03:27:26;;;;;;;3.67;2.70;;;21.90;96.70;;;;;;5042727;28;20037;-72
2021/06/19 03:29:57;;;;;;;3.20;2.45;;;21.80;96.70;;;;;;5039976;28;20038;-72
2021/06/19 03:32:27;;;;;;;4.20;2.95;;;21.80;96.70;;;;;;5040500;28;20049;-73
2021/06/19 03:34:57;;;;;;;4.55;2.90;;;21.90;96.70;;;;;;5044277;28;20039;-73
2021/06/19 03:37:25;;;;;;;5.88;2.80;;;21.90;96.70;;;;;;5052027;28;20140;-73
2021/06/19 03:39:53;;;;;;;4.13;2.83;;;21.80;96.70;;;;;;5053492;28;20045;-73
2021/06/19 03:42:22;;;;;;;2.95;2.75;;;21.80;96.70;;;;;;5039992;28;20059;-73
2021/06/19 03:44:52;;;;;;;3.85;2.80;;;21.80;96.70;;;;;;5026305;28;20443;-73
2021/06/19 03:47:24;;;;;;;4.03;2.78;;;21.90;96.70;;;;;;5040724;28;20040;-73
2021/06/19 03:49:53;;;;;;;3.97;2.92;;;22.10;96.70;;;;;;5041537;28;20418;-73
2021/06/19 03:52:23;;;;;;;3.92;3.00;;;22.10;96.70;;;;;;5042461;28;20356;-73
2021/06/19 03:54:53;;;;;;;4.70;2.88;;;22.00;96.70;;;;;;5042490;28;20041;-73
2021/06/19 03:57:25;;;;;;;5.90;3.38;;;22.00;96.70;;;;;;5043144;28;20325;-73
2021/06/19 03:59:55;;;;;;;5.78;3.10;;;21.90;96.70;;;;;;5024676;28;20044;-73
2021/06/19 04:02:27;;;;;;;6.85;3.20;;;21.80;96.70;;;;;;5040295;28;20052;-73
2021/06/19 04:04:57;;;;;;;6.60;3.30;;;21.80;96.70;;;;;;5040869;28;20043;-73
2021/06/19 04:07:26;;;;;;;5.57;2.90;;;21.80;96.70;;;;;;5039969;28;20040;-72
2021/06/19 04:09:56;;;;;;;4.50;3.45;;;21.80;96.70;;;;;;5042454;28;20047;-73
2021/06/19 04:12:26;;;;;;;5.65;3.83;;;21.90;96.70;;;;;;5038753;28;20047;-73
2021/06/19 04:14:56;;;;;;;5.32;3.25;;;22.00;96.70;;;;;;5040618;28;20057;-72
2021/06/19 04:17:28;;;;;;;7.38;3.58;;;22.00;96.70;;;;;;5037788;28;20510;-72
2021/06/19 04:19:58;;;;;;;6.43;3.55;;;22.00;96.70;;;;;;5042485;28;20048;-73
2021/06/19 04:22:28;;;;;;;9.52;3.20;;;21.90;96.70;;;;;;5040282;28;20102;-73
2021/06/19 04:24:58;;;;;;;4.90;3.58;;;21.90;96.70;;;;;;5041109;28;20432;-72
2021/06/19 04:27:28;;;;;;;3.58;3.03;;;21.90;96.70;;;;;;5024059;28;20052;-73
2021/06/19 04:29:59;;;;;;;6.57;3.83;;;22.00;96.70;;;;;;5042376;28;20049;-73
2021/06/19 04:32:31;;;;;;;3.95;3.17;;;22.20;96.70;;;;;;5040691;28;20044;-73
2021/06/19 04:35:01;;;;;;;6.72;3.45;;;22.20;96.70;;;;;;5042531;28;20033;-73
2021/06/19 04:37:30;;;;;;;4.40;3.47;;;22.10;96.70;;;;;;5036954;28;20132;-73
2021/06/19 04:40:09;;;;;;;6.72;3.80;;;21.90;96.70;;;;;;5038876;28;20399;-73
2021/06/19 04:42:41;;;;;;;6.63;3.67;;;21.90;96.70;;;;;;5041235;28;20047;-72
2021/06/19 04:45:13;;;;;;;5.88;4.03;;;22.00;96.70;;;;;;5035975;28;20052;-73
2021/06/19 04:47:45;;;;;;;5.43;3.92;;;22.00;96.70;;;;;;5040768;28;20167;-73
2021/06/19 04:50:15;;;;;;;6.93;3.80;;;22.20;96.70;;;;;;5041641;28;20409;-73
2021/06/19 04:52:46;;;;;;;6.38;3.80;;;22.20;96.70;;;;;;5039673;28;20499;-72
2021/06/19 04:55:19;;;;;;;5.63;3.42;;;22.30;96.70;;;;;;5038643;28;20537;-73
2021/06/19 04:57:52;;;;;;;6.88;4.10;;;22.20;96.70;;;;;;5041039;28;20132;-73
2021/06/19 05:00:23;;;;;;;9.35;4.15;;;22.40;96.70;;;;;;5037759;28;20581;-73
2021/06/19 05:02:55;;;;;;;8.23;3.80;;;22.50;96.70;;;;;;5041070;28;21518;-73
2021/06/19 05:05:28;;;;;;;5.95;3.60;;;22.60;96.70;;;;;;5037104;28;20155;-73
2021/06/19 05:07:59;;;;;;;7.50;4.20;;;22.60;96.70;;;;;;5039578;28;20048;-73
2021/06/19 05:10:29;;;;;;;9.05;3.10;;;22.60;96.70;;;;;;5039682;28;20106;-73
2021/06/19 05:12:59;;;;;;;7.82;4.05;;;22.70;96.70;;;;;;5037595;28;20063;-73
2021/06/19 05:15:29;;;;;;;6.35;3.55;;;22.70;96.70;;;;;;5037255;28;20056;-73
2021/06/19 05:18:01;;;;;;;6.30;3.83;;;22.60;96.70;;;;;;5038529;28;20041;-73
2021/06/19 05:20:32;;;;;;;5.03;3.45;;;22.50;96.70;;;;;;5039936;28;20467;-73
2021/06/19 05:23:08;;;;;;;6.32;3.15;;;22.30;96.70;;;;;;5038557;28;20041;-73
2021/06/19 05:25:38;;;;;;;6.78;3.50;;;22.30;96.70;;;;;;5037585;28;20049;-72
2021/06/19 05:28:08;;;;;;;6.32;4.07;;;22.40;96.70;;;;;;5040940;28;20037;-72
2021/06/19 05:30:38;;;;;;;6.57;3.72;;;22.40;96.70;;;;;;5040782;28;20418;-73
2021/06/19 05:33:10;;;;;;;7.05;3.92;;;22.60;96.70;;;;;;5040685;28;20037;-73
2021/06/19 05:35:39;;;;;;;5.20;3.97;;;22.60;96.70;;;;;;5038046;28;20068;-73
2021/06/19 05:38:09;;;;;;;5.93;4.40;;;22.60;96.70;;;;;;5040718;28;20120;-73
2021/06/19 05:40:40;;;;;;;6.40;4.15;;;22.60;96.70;;;;;;5038639;28;20056;-73
2021/06/19 05:43:11;;;;;;;5.13;4.00;;;22.60;96.70;;;;;;5033562;28;20052;-73
2021/06/19 05:45:41;;;;;;;5.38;3.65;;;22.70;96.70;;;;;;5032040;28;20441;-72
2021/06/19 05:48:12;;;;;;;6.82;4.20;;;22.40;96.70;;;;;;5039891;28;20045;-73
2021/06/19 05:50:42;;;;;;;6.53;3.78;;;22.40;96.70;;;;;;5040921;28;20605;-73
2021/06/19 05:53:11;;;;;;;6.55;3.92;;;22.50;96.70;;;;;;5034200;28;20045;-73
2021/06/19 05:55:40;;;;;;;7.65;3.70;;;22.40;96.70;;;;;;5039142;28;20084;-73
2021/06/19 05:58:09;;;;;;;6.70;4.30;;;22.30;96.70;;;;;;5039066;28;20033;-73
2021/06/19 06:00:38;;;;;;;6.47;3.78;;;22.30;96.70;;;;;;5027660;28;20579;-74
2021/06/19 06:03:06;;;;;;;4.30;3.88;;;22.50;96.70;;;;;;5040819;28;20114;-74
2021/06/19 06:05:36;;;;;;;7.18;4.10;;;22.50;96.70;;;;;;5043884;28;20270;-74
2021/06/19 06:08:05;;;;;;;4.55;4.13;;;22.60;96.70;;;;;;5039544;28;20091;-73
2021/06/19 06:10:35;;;;;;;7.45;4.68;;;22.80;96.70;;;;;;5042214;28;20037;-73
2021/06/19 06:13:05;;;;;;;7.13;4.00;;;22.80;96.70;;;;;;5037263;28;20510;-74
2021/06/19 06:15:33;;;;;;;10.50;4.82;;;22.80;96.70;;;;;;5043153;28;20430;-74
2021/06/19 06:18:02;;;;;;;12.82;4.80;;;22.70;96.70;;;;;;5040963;28;20130;-73
2021/06/19 06:20:30;;;;;;;9.88;5.60;;;22.80;96.70;;;;;;5042915;28;20448;-73
2021/06/19 06:23:00;;;;;;;11.57;5.90;;;22.90;96.70;;;;;;5040169;28;20045;-74
2021/06/19 06:25:29;;;;;;;17.50;10.20;;;22.80;96.70;;;;;;5043761;28;20040;-73
2021/06/19 06:27:57;;;;;;;18.48;9.23;;;22.80;96.70;;;;;;5039660;28;20640;-74
2021/06/19 06:30:26;;;;;;;19.50;10.75;;;22.80;96.70;;;;;;5041543;28;20328;-74
2021/06/19 06:32:57;;;;;;;19.80;9.98;;;22.90;96.70;;;;;;5054145;28;20052;-74
2021/06/19 06:35:25;;;;;;;15.00;8.77;;;22.90;96.70;;;;;;5037484;28;20064;-74
2021/06/19 06:37:55;;;;;;;16.85;10.60;;;23.00;96.70;;;;;;5041671;28;20521;-74
2021/06/19 06:40:25;;;;;;;12.93;8.77;;;23.10;96.70;;;;;;5040168;28;20047;-75
2021/06/19 06:42:53;;;;;;;14.90;8.85;;;23.30;96.70;;;;;;5040673;28;20502;-74
2021/06/19 06:45:22;;;;;;;14.85;6.80;;;23.30;96.70;;;;;;5041172;28;20029;-73
2021/06/19 06:47:51;;;;;;;11.45;6.10;;;23.40;96.70;;;;;;5042574;28;20040;-74
2021/06/19 06:50:20;;;;;;;12.73;6.00;;;23.50;96.70;;;;;;5023808;28;20049;-74
2021/06/19 06:52:49;;;;;;;8.98;5.05;;;23.70;96.70;;;;;;5041723;28;20041;-74
2021/06/19 06:55:18;;;;;;;11.40;5.43;;;23.80;96.70;;;;;;5041352;28;20072;-74
2021/06/19 06:57:49;;;;;;;12.60;5.35;;;23.90;96.70;;;;;;5043422;28;20110;-74
2021/06/19 07:00:18;;;;;;;9.15;5.65;;;24.00;96.70;;;;;;5040787;28;20083;-74
2021/06/19 07:02:47;;;;;;;8.40;5.20;;;24.00;96.70;;;;;;5040229;28;20045;-74
2021/06/19 07:05:16;;;;;;;9.35;4.75;;;24.10;96.70;;;;;;5041655;28;20172;-74
2021/06/19 07:07:45;;;;;;;9.77;4.88;;;24.20;96.70;;;;;;5026466;28;20083;-74
2021/06/19 07:10:14;;;;;;;9.68;4.32;;;24.30;96.70;;;;;;5041996;28;20040;-74
2021/06/19 07:12:45;;;;;;;6.22;4.70;;;24.40;96.70;;;;;;5041588;28;20045;-74
2021/06/19 07:15:17;;;;;;;9.50;4.10;;;24.50;96.70;;;;;;5036641;28;20055;-75
2021/06/19 07:17:48;;;;;;;5.53;3.20;;;24.50;96.70;;;;;;5043559;28;20048;-74
2021/06/19 07:20:18;;;;;;;6.00;3.55;;;24.60;96.70;;;;;;5039604;28;20041;-75
2021/06/19 07:22:47;;;;;;;6.50;2.97;;;24.60;96.70;;;;;;5042757;28;20056;-74
2021/06/19 07:25:16;;;;;;;8.60;3.70;;;24.70;96.70;;;;;;5022760;28;20662;-74
2021/06/19 07:27:53;;;;;;;7.38;3.88;;;24.70;96.70;;;;;;4999501;28;20383;-74
2021/06/19 07:30:24;;;;;;;7.63;4.22;;;24.60;96.70;;;;;;5041463;28;20057;-74
2021/06/19 07:32:52;;;;;;;6.45;4.75;;;24.60;96.70;;;;;;5040839;28;20051;-74
2021/06/19 07:35:21;;;;;;;6.40;4.88;;;24.70;96.70;;;;;;5040753;28;20041;-73
2021/06/19 07:37:49;;;;;;;7.75;4.05;;;24.80;96.70;;;;;;5040958;28;20410;-74
2021/06/19 07:40:19;;;;;;;6.30;3.78;;;24.90;96.70;;;;;;5040490;28;20074;-74
2021/06/19 07:42:47;;;;;;;4.38;3.80;;;25.00;96.70;;;;;;5011956;28;20051;-74
2021/06/19 07:45:16;;;;;;;9.57;3.50;;;25.20;96.70;;;;;;5022886;28;20541;-74
2021/06/19 07:47:46;;;;;;;7.10;3.53;;;25.20;96.70;;;;;;5038816;28;20048;-74
2021/06/19 07:50:14;;;;;;;4.97;3.40;;;25.30;96.70;;;;;;5040649;28;20052;-73
2021/06/19 07:52:43;;;;;;;8.05;3.70;;;25.30;96.70;;;;;;5038398;28;20047;-74
2021/06/19 07:55:17;;;;;;;5.25;3.33;;;25.30;96.70;;;;;;5041117;28;20081;-73
2021/06/19 07:57:46;;;;;;;8.13;3.35;;;25.40;96.70;;;;;;5023777;28;20600;-74
2021/06/19 08:00:15;;;;;;;5.60;3.55;;;25.50;96.70;;;;;;5041606;28;20068;-74
2021/06/19 08:02:46;;;;;;;5.90;3.40;;;25.70;96.70;;;;;;5039396;28;20502;-74
2021/06/19 08:05:15;;;;;;;6.82;3.72;;;25.70;96.70;;;;;;5048068;28;20049;-74
2021/06/19 08:07:43;;;;;;;6.35;4.10;;;25.80;96.70;;;;;;5028142;28;20037;-74
2021/06/19 08:10:11;;;;;;;5.70;3.95;;;25.90;96.70;;;;;;5043181;28;20376;-73
2021/06/19 08:12:40;;;;;;;7.95;4.05;;;25.90;96.70;;;;;;5054227;28;20057;-74
2021/06/19 08:15:10;;;;;;;7.68;5.03;;;25.90;96.70;;;;;;5024640;28;20053;-74
2021/06/19 08:17:38;;;;;;;7.82;4.38;;;25.90;96.70;;;;;;5040136;28;20033;-74
2021/06/19 08:20:10;;;;;;;4.93;4.38;;;25.90;96.70;;;;;;5036747;28;20041;-73
2021/06/19 08:22:39;;;;;;;8.75;4.45;;;25.80;96.70;;;;;;5038443;28;20060;-74
2021/06/19 08:25:09;;;;;;;6.15;4.28;;;25.90;96.70;;;;;;5042944;28;20048;-74
2021/06/19 08:27:37;;;;;;;5.75;3.90;;;25.90;96.70;;;;;;5039599;28;20037;-74
2021/06/19 08:30:07;;;;;;;5.18;4.40;;;25.80;96.70;;;;;;5038214;28;20108;-74
2021/06/19 08:32:36;;;;;;;6.75;4.50;;;25.80;96.70;;;;;;5040048;28;20048;-74
2021/06/19 08:35:05;;;;;;;7.97;4.78;;;25.90;96.70;;;;;;5042790;28;20045;-74
2021/06/19 08:37:35;;;;;;;7.15;4.20;;;25.90;96.70;;;;;;5038108;28;20139;-74
2021/06/19 08:40:04;;;;;;;8.50;4.07;;;26.00;96.70;;;;;;5043091;28;20056;-74
2021/06/19 08:42:33;;;;;;;6.15;4.13;;;26.10;96.70;;;;;;5041208;28;20049;-74
2021/06/19 08:45:03;;;;;;;6.72;4.25;;;26.30;96.10;;;;;;5040359;28;20041;-74
2021/06/19 08:47:35;;;;;;;10.50;4.45;;;26.30;96.10;;;;;;5027573;28;20090;-74
2021/06/19 08:50:06;;;;;;;5.72;4.30;;;26.40;96.10;;;;;;5036851;28;20040;-74
2021/06/19 08:52:38;;;;;;;5.65;3.90;;;26.50;95.10;;;;;;5037310;28;20502;-74
2021/06/19 08:55:09;;;;;;;6.93;4.22;;;26.50;95.60;;;;;;5041321;28;20068;-74
2021/06/19 08:57:38;;;;;;;4.53;3.38;;;26.70;94.70;;;;;;5042420;28;20045;-74
2021/06/19 09:00:08;;;;;;;5.20;4.10;;;26.70;94.40;;;;;;5016738;28;20045;-74
2021/06/19 09:02:37;;;;;;;8.55;4.13;;;26.80;94.00;;;;;;5040299;28;20472;-74
2021/06/19 09:05:08;;;;;;;5.60;4.07;;;26.80;93.90;;;;;;5041901;28;20059;-74
2021/06/19 09:07:41;;;;;;;7.57;3.83;;;26.80;94.20;;;;;;5041626;28;20098;-74
2021/06/19 09:10:23;;;;;;;7.20;3.47;;;26.80;94.00;;;;;;5037460;28;20532;-74
2021/06/19 09:13:04;;;;;;;7.60;4.00;;;26.90;94.10;;;;;;5039519;28;20045;-74
2021/06/19 09:15:34;;;;;;;5.50;3.30;;;27.00;93.60;;;;;;5035677;28;20078;-74
2021/06/19 09:18:05;;;;;;;5.50;3.30;;;27.20;93.60;;;;;;5040742;28;20033;-74
2021/06/19 09:20:35;;;;;;;6.38;3.00;;;27.40;92.30;;;;;;5041193;28;20487;-74
2021/06/19 09:23:06;;;;;;;5.00;3.10;;;27.50;91.90;;;;;;5039513;28;20588;-74
2021/06/19 09:25:35;;;;;;;5.03;3.10;;;27.70;91.00;;;;;;5036799;28;20387;-74
2021/06/19 09:28:05;;;;;;;7.53;3.30;;;27.90;91.00;;;;;;5040452;28;20104;-74
2021/06/19 09:30:34;;;;;;;7.60;3.05;;;27.90;90.10;;;;;;5024235;28;20380;-74
2021/06/19 09:33:06;;;;;;;10.32;3.13;;;28.00;90.20;;;;;;5043538;28;20044;-74
2021/06/19 09:35:35;;;;;;;3.30;3.00;;;28.00;89.10;;;;;;5044996;28;20049;-74
2021/06/19 09:38:08;;;;;;;4.50;3.13;;;28.00;88.70;;;;;;5043013;28;21122;-74
2021/06/19 09:40:38;;;;;;;6.75;3.55;;;28.10;88.30;;;;;;5044280;28;20041;-74
2021/06/19 09:43:08;;;;;;;6.43;3.15;;;28.10;87.90;;;;;;5041720;28;20041;-74
2021/06/19 09:45:37;;;;;;;7.65;3.70;;;28.20;87.90;;;;;;5027032;28;20053;-74
2021/06/19 09:48:21;;;;;;;6.63;3.30;;;28.20;87.30;;;;;;5025061;28;20041;-74
2021/06/19 09:51:10;;;;;;;5.20;3.55;;;28.20;87.80;;;;;;5041615;28;20464;-74
2021/06/19 09:53:41;;;;;;;5.53;3.10;;;28.20;87.90;;;;;;5043775;28;20048;-74
2021/06/19 09:56:12;;;;;;;8.35;3.30;;;28.30;88.10;;;;;;5028596;28;20380;-74
2021/06/19 09:58:41;;;;;;;5.57;3.13;;;28.30;87.30;;;;;;5044793;28;20044;-74
2021/06/19 10:01:10;;;;;;;3.42;2.60;;;28.30;87.10;;;;;;5044591;28;20036;-74
2021/06/19 10:03:53;;;;;;;6.43;2.42;;;28.30;87.00;;;;;;5041763;28;20046;-74
2021/06/19 10:06:22;;;;;;;3.90;2.70;;;28.30;86.50;;;;;;5046431;28;20041;-74
2021/06/19 10:08:52;;;;;;;4.65;3.10;;;28.20;86.40;;;;;;5041545;28;20122;-74
2021/06/19 10:11:25;;;;;;;4.85;2.80;;;28.20;86.70;;;;;;5054085;28;20044;-74
2021/06/19 10:13:54;;;;;;;6.05;3.08;;;28.20;86.90;;;;;;5043404;28;20049;-74
2021/06/19 10:16:23;;;;;;;4.00;2.60;;;28.20;87.30;;;;;;5043034;28;20045;-74
2021/06/19 10:18:53;;;;;;;5.18;2.60;;;28.20;87.60;;;;;;5043345;28;20110;-74
2021/06/19 10:21:22;;;;;;;4.32;2.67;;;28.30;87.20;;;;;;5044411;28;20355;-74
2021/06/19 10:23:52;;;;;;;5.55;3.08;;;28.40;87.30;;;;;;5043409;28;20126;-74
2021/06/19 10:26:27;;;;;;;3.35;2.55;;;28.40;86.50;;;;;;5042357;28;20043;-74
2021/06/19 10:28:58;;;;;;;3.72;2.10;;;28.50;86.60;;;;;;5045385;28;20630;-75
2021/06/19 10:31:27;;;;;;;4.88;2.38;;;28.50;85.70;;;;;;5041828;28;20045;-75
2021/06/19 10:33:55;;;;;;;5.82;2.15;;;28.50;86.70;;;;;;5026245;28;20052;-75
2021/06/19 10:36:37;;;;;;;5.10;2.42;;;28.60;86.00;;;;;;5040404;28;20095;-74
2021/06/19 10:39:07;;;;;;;6.43;2.50;;;28.70;84.40;;;;;;5042525;28;20043;-73
2021/06/19 10:41:47;;;;;;;4.00;2.20;;;28.70;85.70;;;;;;5039142;28;20050;-73
2021/06/19 10:44:39;;;;;;;6.28;3.38;;;28.80;86.00;;;;;;5045349;28;20079;-73
2021/06/19 10:47:07;;;;;;;5.82;2.80;;;28.90;85.90;;;;;;5044869;28;20045;-73
2021/06/19 10:49:36;;;;;;;5.35;2.95;;;29.00;86.10;;;;;;5041264;28;20048;-73
2021/06/19 10:52:26;;;;;;;3.78;2.25;;;29.30;86.00;;;;;;5040931;28;20437;-73
2021/06/19 10:55:34;;;;;;;4.40;2.60;;;29.50;82.40;;;;;;5035738;28;20056;-73
2021/06/19 10:58:18;;;;;;;3.20;2.38;;;29.70;83.30;;;;;;5041230;28;20052;-73
2021/06/19 11:00:48;;;;;;;4.25;2.30;;;29.80;83.40;;;;;;5041296;28;20041;-73
2021/06/19 11:03:18;;;;;;;5.15;2.63;;;29.90;81.80;;;;;;5044505;28;20122;-73
2021/06/19 11:05:59;;;;;;;4.50;2.30;;;29.90;81.40;;;;;;5040723;28;20103;-73
2021/06/19 11:08:48;;;;;;;4.78;2.03;;;30.10;79.90;;;;;;5040921;28;20047;-74
2021/06/19 11:11:16;;;;;;;4.97;2.08;;;30.20;79.60;;;;;;5037438;28;20060;-75
2021/06/19 11:13:49;;;;;;;5.53;2.10;;;30.50;79.30;;;;;;5043255;28;20033;-74
2021/06/19 11:16:44;;;;;;;3.25;2.60;;;30.60;80.60;;;;;;5037997;28;20041;-75
2021/06/19 11:19:35;;;;;;;2.38;2.17;;;30.40;79.50;;;;;;5039122;28;20057;-75
2021/06/19 11:22:26;;;;;;;3.22;2.30;;;30.50;78.80;;;;;;5040342;28;20171;-75
2021/06/19 11:25:25;;;;;;;4.25;2.50;;;30.70;78.50;;;;;;5041274;28;20451;-75
2021/06/19 11:27:57;;;;;;;2.70;2.35;;;30.70;77.20;;;;;;5041235;28;20095;-75
2021/06/19 11:30:48;;;;;;;3.83;2.63;;;30.80;76.80;;;;;;5041078;28;20055;-74
2021/06/19 11:33:44;;;;;;;3.00;2.40;;;30.70;76.60;;;;;;5022549;28;20157;-75
2021/06/19 11:36:36;;;;;;;5.97;2.17;;;30.80;77.40;;;;;;5036709;28;20162;-75
2021/06/19 11:39:10;;;;;;;3.92;2.30;;;30.80;76.30;;;;;;5029766;28;20047;-75
2021/06/19 11:41:46;;;;;;;3.08;2.60;;;30.60;76.90;;;;;;5023852;28;20076;-75
2021/06/19 11:44:21;;;;;;;2.20;2.00;;;30.70;75.90;;;;;;5040793;28;20036;-75
2021/06/19 11:46:56;;;;;;;4.97;2.28;;;30.60;77.20;;;;;;5024625;28;20478;-75
2021/06/19 11:49:26;;;;;;;4.78;2.47;;;30.60;75.80;;;;;;5043946;28;20481;-76
2021/06/19 11:51:55;;;;;;;2.08;1.85;;;30.60;75.90;;;;;;5022056;28;20183;-75
2021/06/19 11:54:25;;;;;;;5.13;2.50;;;30.50;75.30;;;;;;5038070;28;20260;-75
2021/06/19 11:56:55;;;;;;;3.33;2.72;;;30.60;75.60;;;;;;5038209;28;20125;-75
2021/06/19 11:59:27;;;;;;;5.57;2.25;;;30.70;75.70;;;;;;5040467;28;20045;-74
2021/06/19 12:01:57;;;;;;;6.80;3.15;;;30.70;76.70;;;;;;5039920;28;20499;-74
2021/06/19 12:04:28;;;;;;;5.32;2.15;;;30.80;75.60;;;;;;5037492;28;20584;-74
2021/06/19 12:06:58;;;;;;;3.55;2.10;;;30.80;75.80;;;;;;5039631;28;20036;-73
2021/06/19 12:09:31;;;;;;;2.72;2.03;;;30.60;75.20;;;;;;5040142;28;20075;-74
2021/06/19 12:12:01;;;;;;;4.57;2.40;;;30.40;74.90;;;;;;5038704;28;20045;-73
2021/06/19 12:14:31;;;;;;;2.42;2.00;;;30.40;75.20;;;;;;5038764;28;20044;-73
2021/06/19 12:17:06;;;;;;;3.92;1.90;;;30.50;74.60;;;;;;5039222;28;20449;-73
2021/06/19 12:19:37;;;;;;;3.65;1.92;;;30.40;74.80;;;;;;5038167;28;20593;-73
2021/06/19 12:22:07;;;;;;;2.30;2.10;;;30.40;74.10;;;;;;5041150;28;20060;-73
2021/06/19 12:24:37;;;;;;;2.17;1.85;;;30.30;74.20;;;;;;5040571;28;20064;-73
2021/06/19 12:27:11;;;;;;;4.38;2.13;;;30.40;75.80;;;;;;5040241;28;20040;-73
2021/06/19 12:29:43;;;;;;;2.80;2.22;;;30.40;76.00;;;;;;5041787;28;20049;-73
2021/06/19 12:32:25;;;;;;;4.47;2.20;;;30.50;75.80;;;;;;5039487;28;20120;-73
2021/06/19 12:34:55;;;;;;;7.45;2.13;;;30.60;75.00;;;;;;5039598;28;20041;-74
2021/06/19 12:37:27;;;;;;;2.85;2.10;;;30.90;74.00;;;;;;5038484;28;20498;-74
2021/06/19 12:39:56;;;;;;;2.35;2.00;;;31.20;72.50;;;;;;5037544;28;20045;-74
2021/06/19 12:42:40;;;;;;;4.22;2.20;;;31.40;72.20;;;;;;5020327;28;20045;-74
2021/06/19 12:45:12;;;;;;;4.18;2.20;;;31.50;72.80;;;;;;5038141;28;20617;-74
2021/06/19 12:47:46;;;;;;;6.25;2.25;;;31.60;74.30;;;;;;5039618;28;20041;-73
2021/06/19 12:50:18;;;;;;;2.63;2.28;;;31.70;72.70;;;;;;5039092;28;20047;-73
2021/06/19 12:53:01;;;;;;;3.15;2.20;;;31.70;74.70;;;;;;5029226;28;20044;-73
2021/06/19 12:55:31;;;;;;;3.67;2.30;;;31.60;73.70;;;;;;5039123;28;20442;-73
2021/06/19 12:58:12;;;;;;;3.70;2.03;;;31.60;73.90;;;;;;5023465;28;20041;-73
2021/06/19 13:00:47;;;;;;;7.28;2.55;;;31.70;73.10;;;;;;5036324;28;20047;-73
2021/06/19 13:03:22;;;;;;;2.47;2.25;;;31.90;74.00;;;;;;5022776;28;20053;-73
2021/06/19 13:05:54;;;;;;;2.60;2.40;;;32.20;74.40;;;;;;5039032;28;20045;-72
2021/06/19 13:08:24;;;;;;;15.60;3.42;;;32.40;73.40;;;;;;5038768;28;20102;-72